sensor_id;sensor_type;location;lat;lon;timestamp;pressure;altitude;pressure_sealevel;temperature;humidity
74633;BME280;63139;52.018;8.552;2023-09-30T00:00:34;101392.63;;;12.66;100.00
74633;BME280;63139;52.018;8.552;2023-09-30T00:03:03;101394.25;;;12.59;100.00
74633;BME280;63139;52.018;8.552;2023-09-30T00:05:31;101394.22;;;12.51;100.00
74633;BME280;63139;52.018;8.552;2023-09-30T00:07:59;101402.97;;;12.43;100.00
74633;BME280;63139;52.018;8.552;2023-09-30T00:10:28;101406.06;;;12.39;100.00
74633;BME280;63139;52.018;8.552;2023-09-30T00:12:57;101413.97;;;12.31;100.00
74633;BME280;63139;52.018;8.552;2023-09-30T00:15:25;101399.66;;;12.24;100.00
74633;BME280;63139;52.018;8.552;2023-09-30T00:17:53;101404.63;;;12.19;100.00
74633;BME280;63139;52.018;8.552;2023-09-30T00:20:21;101399.78;;;12.14;100.00
74633;BME280;63139;52.018;8.552;2023-09-30T00:22:49;101400.09;;;12.11;100.00
74633;BME280;63139;52.018;8.552;2023-09-30T00:25:16;101404.88;;;12.08;100.00
74633;BME280;63139;52.018;8.552;2023-09-30T00:27:46;101411.47;;;12.03;100.00
74633;BME280;63139;52.018;8.552;2023-09-30T00:30:14;101417.78;;;12.02;100.00
74633;BME280;63139;52.018;8.552;2023-09-30T00:32:41;101416.78;;;12.03;100.00
74633;BME280;63139;52.018;8.552;2023-09-30T00:35:10;101423.91;;;12.03;100.00
74633;BME280;63139;52.018;8.552;2023-09-30T00:37:38;101417.06;;;12.00;100.00
74633;BME280;63139;52.018;8.552;2023-09-30T00:40:07;101423.22;;;12.01;100.00
74633;BME280;63139;52.018;8.552;2023-09-30T00:42:38;101427.69;;;12.00;100.00
74633;BME280;63139;52.018;8.552;2023-09-30T00:45:09;101429.53;;;12.00;100.00
74633;BME280;63139;52.018;8.552;2023-09-30T00:47:37;101424.38;;;11.98;100.00
74633;BME280;63139;52.018;8.552;2023-09-30T00:50:06;101430.81;;;11.96;100.00
74633;BME280;63139;52.018;8.552;2023-09-30T00:52:38;101447.72;;;11.95;100.00
74633;BME280;63139;52.018;8.552;2023-09-30T00:55:07;101440.75;;;11.94;100.00
74633;BME280;63139;52.018;8.552;2023-09-30T00:57:37;101437.59;;;11.90;100.00
74633;BME280;63139;52.018;8.552;2023-09-30T01:00:08;101442.06;;;11.90;100.00
74633;BME280;63139;52.018;8.552;2023-09-30T01:02:39;101436.59;;;11.91;100.00
74633;BME280;63139;52.018;8.552;2023-09-30T01:05:07;101432.97;;;11.92;100.00
74633;BME280;63139;52.018;8.552;2023-09-30T01:07:36;101433.13;;;11.91;100.00
74633;BME280;63139;52.018;8.552;2023-09-30T01:10:04;101425.16;;;11.91;100.00
74633;BME280;63139;52.018;8.552;2023-09-30T01:12:32;101425.84;;;11.93;100.00
74633;BME280;63139;52.018;8.552;2023-09-30T01:15:01;101426.66;;;11.93;100.00
74633;BME280;63139;52.018;8.552;2023-09-30T01:17:35;101437.13;;;11.95;100.00
74633;BME280;63139;52.018;8.552;2023-09-30T01:20:04;101436.28;;;11.94;100.00
74633;BME280;63139;52.018;8.552;2023-09-30T01:22:34;101426.34;;;11.96;100.00
74633;BME280;63139;52.018;8.552;2023-09-30T01:25:02;101427.88;;;11.99;100.00
74633;BME280;63139;52.018;8.552;2023-09-30T01:27:31;101425.88;;;12.01;100.00
74633;BME280;63139;52.018;8.552;2023-09-30T01:29:59;101416.09;;;12.01;100.00
74633;BME280;63139;52.018;8.552;2023-09-30T01:32:27;101425.59;;;12.04;100.00
74633;BME280;63139;52.018;8.552;2023-09-30T01:34:55;101432.56;;;12.05;100.00
74633;BME280;63139;52.018;8.552;2023-09-30T01:37:26;101429.59;;;12.08;100.00
74633;BME280;63139;52.018;8.552;2023-09-30T01:39:56;101432.94;;;12.10;100.00
74633;BME280;63139;52.018;8.552;2023-09-30T01:42:24;101426.63;;;12.11;100.00
74633;BME280;63139;52.018;8.552;2023-09-30T01:44:52;101413.06;;;12.14;100.00
74633;BME280;63139;52.018;8.552;2023-09-30T01:47:21;101425.34;;;12.15;100.00
74633;BME280;63139;52.018;8.552;2023-09-30T01:49:48;101429.50;;;12.18;100.00
74633;BME280;63139;52.018;8.552;2023-09-30T01:52:16;101428.38;;;12.20;100.00
74633;BME280;63139;52.018;8.552;2023-09-30T01:54:44;101432.69;;;12.21;100.00
74633;BME280;63139;52.018;8.552;2023-09-30T01:57:15;101436.00;;;12.23;100.00
74633;BME280;63139;52.018;8.552;2023-09-30T01:59:43;101432.38;;;12.24;100.00
74633;BME280;63139;52.018;8.552;2023-09-30T02:02:14;101430.53;;;12.25;100.00
74633;BME280;63139;52.018;8.552;2023-09-30T02:04:42;101420.59;;;12.27;100.00
74633;BME280;63139;52.018;8.552;2023-09-30T02:07:10;101415.97;;;12.29;100.00
74633;BME280;63139;52.018;8.552;2023-09-30T02:09:38;101420.31;;;12.30;100.00
74633;BME280;63139;52.018;8.552;2023-09-30T02:12:06;101424.47;;;12.32;100.00
74633;BME280;63139;52.018;8.552;2023-09-30T02:14:37;101437.44;;;12.35;100.00
74633;BME280;63139;52.018;8.552;2023-09-30T02:17:05;101439.94;;;12.37;100.00
74633;BME280;63139;52.018;8.552;2023-09-30T02:19:33;101441.56;;;12.38;100.00
74633;BME280;63139;52.018;8.552;2023-09-30T02:22:02;101443.25;;;12.39;100.00
74633;BME280;63139;52.018;8.552;2023-09-30T02:24:29;101450.22;;;12.40;100.00
74633;BME280;63139;52.018;8.552;2023-09-30T02:26:57;101446.44;;;12.42;100.00
74633;BME280;63139;52.018;8.552;2023-09-30T02:29:26;101450.78;;;12.43;100.00
74633;BME280;63139;52.018;8.552;2023-09-30T02:31:55;101453.25;;;12.45;100.00
74633;BME280;63139;52.018;8.552;2023-09-30T02:34:23;101460.41;;;12.44;100.00
74633;BME280;63139;52.018;8.552;2023-09-30T02:36:51;101466.72;;;12.43;100.00
74633;BME280;63139;52.018;8.552;2023-09-30T02:39:21;101460.41;;;12.44;100.00
74633;BME280;63139;52.018;8.552;2023-09-30T02:41:49;101461.41;;;12.43;100.00
74633;BME280;63139;52.018;8.552;2023-09-30T02:44:19;101450.09;;;12.41;100.00
74633;BME280;63139;52.018;8.552;2023-09-30T02:46:46;101444.91;;;12.40;100.00
74633;BME280;63139;52.018;8.552;2023-09-30T02:49:16;101445.91;;;12.39;100.00
74633;BME280;63139;52.018;8.552;2023-09-30T02:51:43;101453.03;;;12.38;100.00
74633;BME280;63139;52.018;8.552;2023-09-30T02:54:12;101451.38;;;12.37;100.00
74633;BME280;63139;52.018;8.552;2023-09-30T02:56:42;101454.03;;;12.37;100.00
74633;BME280;63139;52.018;8.552;2023-09-30T02:59:13;101469.16;;;12.37;100.00
74633;BME280;63139;52.018;8.552;2023-09-30T03:01:41;101464.00;;;12.35;100.00
74633;BME280;63139;52.018;8.552;2023-09-30T03:04:09;101476.28;;;12.36;100.00
74633;BME280;63139;52.018;8.552;2023-09-30T03:06:40;101472.09;;;12.34;100.00
74633;BME280;63139;52.018;8.552;2023-09-30T03:09:09;101469.44;;;12.34;100.00
74633;BME280;63139;52.018;8.552;2023-09-30T03:11:39;101461.78;;;12.31;100.00
74633;BME280;63139;52.018;8.552;2023-09-30T03:14:09;101455.81;;;12.29;100.00
74633;BME280;63139;52.018;8.552;2023-09-30T03:16:37;101454.28;;;12.26;100.00
74633;BME280;63139;52.018;8.552;2023-09-30T03:19:07;101443.13;;;12.23;100.00
74633;BME280;63139;52.018;8.552;2023-09-30T03:21:35;101443.47;;;12.20;100.00
74633;BME280;63139;52.018;8.552;2023-09-30T03:24:05;101434.31;;;12.14;100.00
74633;BME280;63139;52.018;8.552;2023-09-30T03:26:34;101433.75;;;12.11;100.00
74633;BME280;63139;52.018;8.552;2023-09-30T03:29:03;101434.25;;;12.06;100.00
74633;BME280;63139;52.018;8.552;2023-09-30T03:31:32;101426.72;;;12.01;100.00
74633;BME280;63139;52.018;8.552;2023-09-30T03:34:00;101440.47;;;11.97;100.00
74633;BME280;63139;52.018;8.552;2023-09-30T03:36:28;101453.19;;;11.93;100.00
74633;BME280;63139;52.018;8.552;2023-09-30T03:38:56;101452.66;;;11.90;100.00
74633;BME280;63139;52.018;8.552;2023-09-30T03:41:26;101469.72;;;11.87;100.00
74633;BME280;63139;52.018;8.552;2023-09-30T03:43:55;101463.75;;;11.85;100.00
74633;BME280;63139;52.018;8.552;2023-09-30T03:46:24;101467.53;;;11.83;100.00
74633;BME280;63139;52.018;8.552;2023-09-30T03:48:52;101454.97;;;11.85;100.00
74633;BME280;63139;52.018;8.552;2023-09-30T03:51:22;101455.09;;;11.83;100.00
74633;BME280;63139;52.018;8.552;2023-09-30T03:53:51;101457.75;;;11.83;100.00
74633;BME280;63139;52.018;8.552;2023-09-30T03:56:20;101454.28;;;11.83;100.00
74633;BME280;63139;52.018;8.552;2023-09-30T03:58:50;101445.47;;;11.82;100.00
74633;BME280;63139;52.018;8.552;2023-09-30T04:01:19;101455.25;;;11.82;100.00
74633;BME280;63139;52.018;8.552;2023-09-30T04:03:47;101452.75;;;11.80;100.00
74633;BME280;63139;52.018;8.552;2023-09-30T04:06:15;101459.72;;;11.81;100.00
74633;BME280;63139;52.018;8.552;2023-09-30T04:08:43;101466.00;;;11.80;100.00
74633;BME280;63139;52.018;8.552;2023-09-30T04:11:11;101457.22;;;11.80;100.00
74633;BME280;63139;52.018;8.552;2023-09-30T04:13:45;101452.06;;;11.78;100.00
74633;BME280;63139;52.018;8.552;2023-09-30T04:16:14;101441.75;;;11.75;100.00
74633;BME280;63139;52.018;8.552;2023-09-30T04:18:42;101457.78;;;11.74;100.00
74633;BME280;63139;52.018;8.552;2023-09-30T04:21:10;101457.09;;;11.72;100.00
74633;BME280;63139;52.018;8.552;2023-09-30T04:23:38;101452.81;;;11.71;100.00
74633;BME280;63139;52.018;8.552;2023-09-30T04:26:06;101455.47;;;11.71;100.00
74633;BME280;63139;52.018;8.552;2023-09-30T04:28:36;101450.16;;;11.71;100.00
74633;BME280;63139;52.018;8.552;2023-09-30T04:31:04;101451.78;;;11.72;100.00
74633;BME280;63139;52.018;8.552;2023-09-30T04:33:36;101462.25;;;11.73;100.00
74633;BME280;63139;52.018;8.552;2023-09-30T04:36:04;101460.44;;;11.74;100.00
74633;BME280;63139;52.018;8.552;2023-09-30T04:38:35;101453.63;;;11.71;100.00
74633;BME280;63139;52.018;8.552;2023-09-30T04:41:03;101449.47;;;11.68;100.00
74633;BME280;63139;52.018;8.552;2023-09-30T04:43:33;101450.59;;;11.66;100.00
74633;BME280;63139;52.018;8.552;2023-09-30T04:46:01;101451.72;;;11.63;100.00
74633;BME280;63139;52.018;8.552;2023-09-30T04:48:31;101468.63;;;11.62;100.00
74633;BME280;63139;52.018;8.552;2023-09-30T04:51:00;101477.56;;;11.61;100.00
74633;BME280;63139;52.018;8.552;2023-09-30T04:53:31;101474.94;;;11.61;100.00
74633;BME280;63139;52.018;8.552;2023-09-30T04:56:00;101478.41;;;11.62;100.00
74633;BME280;63139;52.018;8.552;2023-09-30T04:58:28;101466.00;;;11.62;100.00
74633;BME280;63139;52.018;8.552;2023-09-30T05:00:57;101467.63;;;11.63;100.00
74633;BME280;63139;52.018;8.552;2023-09-30T05:03:25;101462.88;;;11.67;100.00
74633;BME280;63139;52.018;8.552;2023-09-30T05:05:54;101467.06;;;11.70;100.00
74633;BME280;63139;52.018;8.552;2023-09-30T05:08:24;101462.25;;;11.73;100.00
74633;BME280;63139;52.018;8.552;2023-09-30T05:10:56;101478.91;;;11.75;100.00
74633;BME280;63139;52.018;8.552;2023-09-30T05:13:24;101468.16;;;11.77;100.00
74633;BME280;63139;52.018;8.552;2023-09-30T05:15:51;101478.28;;;11.81;100.00
74633;BME280;63139;52.018;8.552;2023-09-30T05:18:20;101475.50;;;11.83;100.00
74633;BME280;63139;52.018;8.552;2023-09-30T05:20:48;101484.28;;;11.83;100.00
74633;BME280;63139;52.018;8.552;2023-09-30T05:23:16;101478.84;;;11.85;100.00
74633;BME280;63139;52.018;8.552;2023-09-30T05:25:45;101483.13;;;11.86;100.00
74633;BME280;63139;52.018;8.552;2023-09-30T05:28:13;101489.13;;;11.88;100.00
74633;BME280;63139;52.018;8.552;2023-09-30T05:30:42;101483.38;;;11.92;100.00
74633;BME280;63139;52.018;8.552;2023-09-30T05:33:10;101474.28;;;11.95;100.00
74633;BME280;63139;52.018;8.552;2023-09-30T05:35:41;101478.97;;;12.01;100.00
74633;BME280;63139;52.018;8.552;2023-09-30T05:38:09;101485.78;;;12.03;100.00
74633;BME280;63139;52.018;8.552;2023-09-30T05:40:39;101481.69;;;12.09;100.00
74633;BME280;63139;52.018;8.552;2023-09-30T05:43:09;101479.44;;;12.14;100.00
74633;BME280;63139;52.018;8.552;2023-09-30T05:45:40;101488.06;;;12.16;100.00
74633;BME280;63139;52.018;8.552;2023-09-30T05:48:16;101484.97;;;12.21;100.00
74633;BME280;63139;52.018;8.552;2023-09-30T05:50:44;101482.81;;;12.24;100.00
74633;BME280;63139;52.018;8.552;2023-09-30T05:53:11;101488.50;;;12.29;100.00
74633;BME280;63139;52.018;8.552;2023-09-30T05:55:40;101499.50;;;12.34;100.00
74633;BME280;63139;52.018;8.552;2023-09-30T05:58:13;101507.97;;;12.38;100.00
74633;BME280;63139;52.018;8.552;2023-09-30T06:00:41;101517.31;;;12.42;100.00
74633;BME280;63139;52.018;8.552;2023-09-30T06:03:09;101520.47;;;12.45;100.00
74633;BME280;63139;52.018;8.552;2023-09-30T06:05:39;101521.03;;;12.49;100.00
74633;BME280;63139;52.018;8.552;2023-09-30T06:08:08;101515.22;;;12.54;100.00
74633;BME280;63139;52.018;8.552;2023-09-30T06:10:37;101519.25;;;12.58;100.00
74633;BME280;63139;52.018;8.552;2023-09-30T06:13:11;101515.28;;;12.62;100.00
74633;BME280;63139;52.018;8.552;2023-09-30T06:15:39;101526.59;;;12.64;100.00
74633;BME280;63139;52.018;8.552;2023-09-30T06:18:08;101532.75;;;12.64;100.00
74633;BME280;63139;52.018;8.552;2023-09-30T06:20:38;101532.59;;;12.66;100.00
74633;BME280;63139;52.018;8.552;2023-09-30T06:23:07;101529.94;;;12.66;100.00
74633;BME280;63139;52.018;8.552;2023-09-30T06:25:36;101529.13;;;12.65;100.00
74633;BME280;63139;52.018;8.552;2023-09-30T06:28:06;101531.09;;;12.63;100.00
74633;BME280;63139;52.018;8.552;2023-09-30T06:30:36;101543.03;;;12.59;100.00
74633;BME280;63139;52.018;8.552;2023-09-30T06:33:04;101539.16;;;12.54;100.00
74633;BME280;63139;52.018;8.552;2023-09-30T06:35:34;101526.34;;;12.49;100.00
74633;BME280;63139;52.018;8.552;2023-09-30T06:38:05;101539.91;;;12.46;100.00
74633;BME280;63139;52.018;8.552;2023-09-30T06:40:34;101540.91;;;12.45;100.00
74633;BME280;63139;52.018;8.552;2023-09-30T06:43:06;101549.56;;;12.47;100.00
74633;BME280;63139;52.018;8.552;2023-09-30T06:45:37;101542.41;;;12.48;100.00
74633;BME280;63139;52.018;8.552;2023-09-30T06:48:09;101547.44;;;12.51;100.00
74633;BME280;63139;52.018;8.552;2023-09-30T06:50:40;101543.81;;;12.52;100.00
74633;BME280;63139;52.018;8.552;2023-09-30T06:53:07;101553.94;;;12.56;100.00
74633;BME280;63139;52.018;8.552;2023-09-30T06:55:37;101552.81;;;12.59;100.00
74633;BME280;63139;52.018;8.552;2023-09-30T06:58:05;101555.97;;;12.62;100.00
74633;BME280;63139;52.018;8.552;2023-09-30T07:00:34;101553.03;;;12.65;100.00
74633;BME280;63139;52.018;8.552;2023-09-30T07:03:04;101556.88;;;12.71;100.00
74633;BME280;63139;52.018;8.552;2023-09-30T07:05:32;101550.44;;;12.73;100.00
74633;BME280;63139;52.018;8.552;2023-09-30T07:08:00;101549.13;;;12.77;100.00
74633;BME280;63139;52.018;8.552;2023-09-30T07:10:28;101557.44;;;12.82;100.00
74633;BME280;63139;52.018;8.552;2023-09-30T07:12:56;101550.69;;;12.88;100.00
74633;BME280;63139;52.018;8.552;2023-09-30T07:15:25;101554.53;;;12.94;100.00
74633;BME280;63139;52.018;8.552;2023-09-30T07:17:53;101560.22;;;12.99;100.00
74633;BME280;63139;52.018;8.552;2023-09-30T07:20:22;101568.41;;;13.05;100.00
74633;BME280;63139;52.018;8.552;2023-09-30T07:22:50;101571.44;;;13.10;100.00
74633;BME280;63139;52.018;8.552;2023-09-30T07:25:37;101581.47;;;13.16;100.00
74633;BME280;63139;52.018;8.552;2023-09-30T07:28:05;101579.16;;;13.21;100.00
74633;BME280;63139;52.018;8.552;2023-09-30T07:30:38;101583.84;;;13.28;100.00
74633;BME280;63139;52.018;8.552;2023-09-30T07:33:07;101587.88;;;13.32;100.00
74633;BME280;63139;52.018;8.552;2023-09-30T07:35:37;101579.41;;;13.36;100.00
74633;BME280;63139;52.018;8.552;2023-09-30T07:38:05;101582.41;;;13.41;100.00
74633;BME280;63139;52.018;8.552;2023-09-30T07:40:33;101584.47;;;13.47;100.00
74633;BME280;63139;52.018;8.552;2023-09-30T07:43:01;101577.66;;;13.53;100.00
74633;BME280;63139;52.018;8.552;2023-09-30T07:45:29;101578.84;;;13.58;100.00
74633;BME280;63139;52.018;8.552;2023-09-30T07:47:57;101580.19;;;13.63;100.00
74633;BME280;63139;52.018;8.552;2023-09-30T07:50:25;101595.69;;;13.67;100.00
74633;BME280;63139;52.018;8.552;2023-09-30T07:52:55;101594.19;;;13.73;100.00
74633;BME280;63139;52.018;8.552;2023-09-30T07:55:22;101596.38;;;13.77;100.00
74633;BME280;63139;52.018;8.552;2023-09-30T07:57:50;101592.25;;;13.83;100.00
74633;BME280;63139;52.018;8.552;2023-09-30T08:00:18;101593.56;;;13.87;100.00
74633;BME280;63139;52.018;8.552;2023-09-30T08:02:48;101594.09;;;13.90;100.00
74633;BME280;63139;52.018;8.552;2023-09-30T08:05:16;101595.41;;;13.94;100.00
74633;BME280;63139;52.018;8.552;2023-09-30T08:07:44;101604.78;;;13.98;100.00
74633;BME280;63139;52.018;8.552;2023-09-30T08:10:14;101595.59;;;14.01;100.00
74633;BME280;63139;52.018;8.552;2023-09-30T08:12:43;101605.63;;;14.07;100.00
74633;BME280;63139;52.018;8.552;2023-09-30T08:15:15;101608.63;;;14.12;100.00
74633;BME280;63139;52.018;8.552;2023-09-30T08:17:43;101608.13;;;14.17;100.00
74633;BME280;63139;52.018;8.552;2023-09-30T08:20:11;101609.31;;;14.22;100.00
74633;BME280;63139;52.018;8.552;2023-09-30T08:22:40;101613.16;;;14.28;100.00
74633;BME280;63139;52.018;8.552;2023-09-30T08:25:09;101620.78;;;14.31;100.00
74633;BME280;63139;52.018;8.552;2023-09-30T08:27:39;101620.31;;;14.35;100.00
74633;BME280;63139;52.018;8.552;2023-09-30T08:30:07;101625.03;;;14.42;100.00
74633;BME280;63139;52.018;8.552;2023-09-30T08:32:36;101625.69;;;14.44;100.00
74633;BME280;63139;52.018;8.552;2023-09-30T08:35:06;101626.19;;;14.47;100.00
74633;BME280;63139;52.018;8.552;2023-09-30T08:37:36;101625.72;;;14.52;100.00
74633;BME280;63139;52.018;8.552;2023-09-30T08:40:05;101631.53;;;14.55;100.00
74633;BME280;63139;52.018;8.552;2023-09-30T08:42:39;101629.19;;;14.60;100.00
74633;BME280;63139;52.018;8.552;2023-09-30T08:45:10;101624.38;;;14.64;100.00
74633;BME280;63139;52.018;8.552;2023-09-30T08:47:41;101625.69;;;14.68;100.00
74633;BME280;63139;52.018;8.552;2023-09-30T08:50:09;101634.22;;;14.71;100.00
74633;BME280;63139;52.018;8.552;2023-09-30T08:52:38;101634.69;;;14.75;100.00
74633;BME280;63139;52.018;8.552;2023-09-30T08:55:08;101627.22;;;14.79;100.00
74633;BME280;63139;52.018;8.552;2023-09-30T08:57:37;101632.22;;;14.82;100.00
74633;BME280;63139;52.018;8.552;2023-09-30T09:00:10;101635.22;;;14.87;100.00
74633;BME280;63139;52.018;8.552;2023-09-30T09:02:40;101629.34;;;14.91;100.00
74633;BME280;63139;52.018;8.552;2023-09-30T09:05:08;101628.03;;;14.95;100.00
74633;BME280;63139;52.018;8.552;2023-09-30T09:07:38;101637.19;;;15.01;100.00
74633;BME280;63139;52.018;8.552;2023-09-30T09:10:07;101638.69;;;15.03;100.00
74633;BME280;63139;52.018;8.552;2023-09-30T09:12:37;101629.84;;;15.11;100.00
74633;BME280;63139;52.018;8.552;2023-09-30T09:15:08;101635.34;;;15.18;100.00
74633;BME280;63139;52.018;8.552;2023-09-30T09:17:47;101633.00;;;15.23;100.00
74633;BME280;63139;52.018;8.552;2023-09-30T09:20:18;101631.47;;;15.28;100.00
74633;BME280;63139;52.018;8.552;2023-09-30T09:22:48;101626.63;;;15.32;100.00
74633;BME280;63139;52.018;8.552;2023-09-30T09:25:19;101632.31;;;15.29;100.00
74633;BME280;63139;52.018;8.552;2023-09-30T09:27:49;101627.09;;;15.43;100.00
74633;BME280;63139;52.018;8.552;2023-09-30T09:30:21;101639.75;;;15.49;100.00
74633;BME280;63139;52.018;8.552;2023-09-30T09:32:58;101625.41;;;15.59;100.00
74633;BME280;63139;52.018;8.552;2023-09-30T09:35:27;101638.44;;;15.62;100.00
74633;BME280;63139;52.018;8.552;2023-09-30T09:37:58;101638.72;;;15.67;99.18
74633;BME280;63139;52.018;8.552;2023-09-30T09:40:27;101632.56;;;15.66;98.30
74633;BME280;63139;52.018;8.552;2023-09-30T09:42:56;101634.03;;;15.77;97.69
74633;BME280;63139;52.018;8.552;2023-09-30T09:45:27;101631.28;;;15.93;96.66
74633;BME280;63139;52.018;8.552;2023-09-30T09:48:00;101628.75;;;16.00;96.18
74633;BME280;63139;52.018;8.552;2023-09-30T09:50:28;101629.66;;;16.15;95.85
74633;BME280;63139;52.018;8.552;2023-09-30T09:52:56;101620.28;;;16.19;93.46
74633;BME280;63139;52.018;8.552;2023-09-30T09:55:26;101619.50;;;16.33;93.54
74633;BME280;63139;52.018;8.552;2023-09-30T09:57:55;101612.03;;;16.51;92.82
74633;BME280;63139;52.018;8.552;2023-09-30T10:00:26;101611.41;;;16.72;93.03
74633;BME280;63139;52.018;8.552;2023-09-30T10:02:56;101616.06;;;16.93;92.43
74633;BME280;63139;52.018;8.552;2023-09-30T10:05:25;101612.59;;;17.36;91.03
74633;BME280;63139;52.018;8.552;2023-09-30T10:07:57;101611.25;;;17.70;88.74
74633;BME280;63139;52.018;8.552;2023-09-30T10:10:30;101611.66;;;17.88;86.62
74633;BME280;63139;52.018;8.552;2023-09-30T10:12:58;101610.91;;;17.94;85.85
74633;BME280;63139;52.018;8.552;2023-09-30T10:15:39;101605.78;;;18.14;83.19
74633;BME280;63139;52.018;8.552;2023-09-30T10:18:09;101613.50;;;18.23;83.10
74633;BME280;63139;52.018;8.552;2023-09-30T10:20:42;101606.09;;;18.26;81.24
74633;BME280;63139;52.018;8.552;2023-09-30T10:23:22;101614.13;;;18.26;80.46
74633;BME280;63139;52.018;8.552;2023-09-30T10:25:53;101611.28;;;18.27;80.42
74633;BME280;63139;52.018;8.552;2023-09-30T10:28:37;101612.81;;;18.36;75.77
74633;BME280;63139;52.018;8.552;2023-09-30T10:31:12;101618.81;;;18.38;75.68
74633;BME280;63139;52.018;8.552;2023-09-30T10:36:46;101631.25;;;18.46;75.63
74633;BME280;63139;52.018;8.552;2023-09-30T10:39:53;101621.38;;;18.46;73.51
74633;BME280;63139;52.018;8.552;2023-09-30T10:42:43;101604.63;;;18.59;73.80
74633;BME280;63139;52.018;8.552;2023-09-30T10:45:43;101606.94;;;18.69;73.37
74633;BME280;63139;52.018;8.552;2023-09-30T10:48:37;101602.47;;;18.76;73.09
74633;BME280;63139;52.018;8.552;2023-09-30T10:51:13;101602.31;;;18.84;73.40
74633;BME280;63139;52.018;8.552;2023-09-30T10:53:44;101604.44;;;18.88;75.18
74633;BME280;63139;52.018;8.552;2023-09-30T10:56:13;101600.34;;;18.92;74.79
74633;BME280;63139;52.018;8.552;2023-09-30T10:58:43;101609.22;;;18.93;75.02
74633;BME280;63139;52.018;8.552;2023-09-30T11:01:11;101606.53;;;18.93;74.30
74633;BME280;63139;52.018;8.552;2023-09-30T11:03:42;101614.53;;;18.86;73.65
74633;BME280;63139;52.018;8.552;2023-09-30T11:06:15;101603.28;;;18.76;73.19
74633;BME280;63139;52.018;8.552;2023-09-30T11:08:47;101611.56;;;18.75;73.40
74633;BME280;63139;52.018;8.552;2023-09-30T11:11:18;101612.00;;;18.78;73.07
74633;BME280;63139;52.018;8.552;2023-09-30T11:13:46;101621.72;;;18.79;69.44
74633;BME280;63139;52.018;8.552;2023-09-30T11:16:13;101615.28;;;19.02;70.37
74633;BME280;63139;52.018;8.552;2023-09-30T11:18:43;101620.09;;;19.13;68.76
74633;BME280;63139;52.018;8.552;2023-09-30T11:21:11;101621.84;;;19.27;68.87
74633;BME280;63139;52.018;8.552;2023-09-30T11:23:40;101615.53;;;19.41;68.37
74633;BME280;63139;52.018;8.552;2023-09-30T11:26:09;101617.31;;;19.55;68.15
74633;BME280;63139;52.018;8.552;2023-09-30T11:28:38;101620.03;;;19.62;65.71
74633;BME280;63139;52.018;8.552;2023-09-30T11:31:08;101618.19;;;19.69;66.87
74633;BME280;63139;52.018;8.552;2023-09-30T11:33:52;101615.78;;;19.46;63.12
74633;BME280;63139;52.018;8.552;2023-09-30T11:36:20;101623.16;;;19.37;65.93
74633;BME280;63139;52.018;8.552;2023-09-30T11:38:50;101628.09;;;19.34;67.57
74633;BME280;63139;52.018;8.552;2023-09-30T11:41:20;101615.03;;;19.24;67.64
74633;BME280;63139;52.018;8.552;2023-09-30T11:43:59;101613.75;;;19.20;64.95
74633;BME280;63139;52.018;8.552;2023-09-30T11:46:48;101606.09;;;19.17;63.90
74633;BME280;63139;52.018;8.552;2023-09-30T11:49:29;101608.59;;;19.19;63.50
74633;BME280;63139;52.018;8.552;2023-09-30T11:51:59;101599.44;;;19.13;66.30
74633;BME280;63139;52.018;8.552;2023-09-30T11:54:31;101593.59;;;19.03;66.00
74633;BME280;63139;52.018;8.552;2023-09-30T11:57:00;101596.69;;;19.00;66.70
74633;BME280;63139;52.018;8.552;2023-09-30T11:59:30;101597.50;;;19.00;67.37
74633;BME280;63139;52.018;8.552;2023-09-30T12:01:58;101588.84;;;19.05;67.56
74633;BME280;63139;52.018;8.552;2023-09-30T12:04:42;101593.00;;;19.08;67.28
74633;BME280;63139;52.018;8.552;2023-09-30T12:07:11;101588.47;;;19.08;65.14
74633;BME280;63139;52.018;8.552;2023-09-30T12:09:39;101590.94;;;19.03;66.67
74633;BME280;63139;52.018;8.552;2023-09-30T12:12:08;101586.28;;;18.90;67.25
74633;BME280;63139;52.018;8.552;2023-09-30T12:14:38;101582.75;;;18.90;66.94
74633;BME280;63139;52.018;8.552;2023-09-30T12:17:06;101581.22;;;18.74;66.83
74633;BME280;63139;52.018;8.552;2023-09-30T12:19:39;101573.91;;;18.68;67.09
74633;BME280;63139;52.018;8.552;2023-09-30T12:22:10;101570.25;;;18.54;67.36
74633;BME280;63139;52.018;8.552;2023-09-30T12:24:38;101570.63;;;18.45;68.08
74633;BME280;63139;52.018;8.552;2023-09-30T12:27:07;101569.09;;;18.36;68.54
74633;BME280;63139;52.018;8.552;2023-09-30T12:29:35;101558.84;;;18.24;65.85
74633;BME280;63139;52.018;8.552;2023-09-30T12:32:05;101557.97;;;18.17;66.48
74633;BME280;63139;52.018;8.552;2023-09-30T12:34:33;101560.22;;;18.14;67.13
74633;BME280;63139;52.018;8.552;2023-09-30T12:37:01;101553.56;;;18.10;67.06
74633;BME280;63139;52.018;8.552;2023-09-30T12:39:31;101554.13;;;18.05;66.09
74633;BME280;63139;52.018;8.552;2023-09-30T12:42:00;101553.66;;;18.02;67.79
74633;BME280;63139;52.018;8.552;2023-09-30T12:44:28;101549.59;;;18.06;67.25
74633;BME280;63139;52.018;8.552;2023-09-30T12:46:56;101548.00;;;18.11;67.24
74633;BME280;63139;52.018;8.552;2023-09-30T12:49:24;101546.63;;;18.15;67.35
74633;BME280;63139;52.018;8.552;2023-09-30T12:51:51;101548.06;;;18.18;65.51
74633;BME280;63139;52.018;8.552;2023-09-30T12:54:19;101544.84;;;18.22;66.20
74633;BME280;63139;52.018;8.552;2023-09-30T12:56:48;101545.84;;;18.21;66.94
74633;BME280;63139;52.018;8.552;2023-09-30T12:59:17;101534.84;;;18.16;66.42